This is the latest recevied weather packets stored in our database for station/object N7WSS. If no packets are shown the sender has not sent any weather packets the latest 10 day(s).
| Time | Temp. | Humidity | Pressure | Rain* | Wind** | Luminosity | Snow |
|---|---|---|---|---|---|---|---|
| 1788249050 | 20.56° C | 85% | 1015.2 hPa | 0 mm | - | - | - |
| 1788248749 | 20.56° C | 85% | 1015.3 hPa | 0 mm | - | - | - |
| 1788248445 | 20.56° C | 85% | 1015.4 hPa | 0 mm | - | - | - |
| 1788248142 | 20.56° C | 85% | 1015.3 hPa | 0 mm | - | - | - |
| 1788247836 | 20.56° C | 85% | 1015.3 hPa | 0 mm | - | - | - |
| 1788247537 | 20.56° C | 86% | 1015.3 hPa | 0 mm | - | - | - |
| 1788247232 | 20.56° C | 84% | 1015.5 hPa | 0 mm | - | - | - |
| 1788246931 | 20.56° C | 83% | 1015.4 hPa | 0 mm | - | - | - |
| 1788246630 | 21.11° C | 82% | 1015.5 hPa | 0 mm | - | - | - |
| 1788246326 | 21.11° C | 82% | 1015.4 hPa | 0 mm | - | - | - |
| 1788246021 | 21.11° C | 80% | 1015.2 hPa | 0 mm | - | - | - |
| 1788245715 | 21.67° C | 79% | 1015.3 hPa | 0 mm | - | - | - |
| 1788245410 | 21.67° C | 78% | 1015.2 hPa | 0 mm | - | - | - |
| 1788245107 | 21.67° C | 77% | 1015.4 hPa | 0 mm | - | - | - |
| 1788244803 | 21.11° C | 79% | 1015.6 hPa | 0 mm | - | - | - |
| 1788244500 | 21.67° C | 79% | 1015.5 hPa | 0 mm | - | - | - |
| 1788244195 | 21.67° C | 79% | 1015.5 hPa | 0 mm | - | - | - |
| 1788243891 | 21.67° C | 78% | 1015.5 hPa | 0 mm | - | - | - |
| 1788243587 | 21.67° C | 77% | 1015.6 hPa | 0 mm | - | - | - |
| 1788243300 | 22.22° C | 76% | 1015.5 hPa | 0 mm | - | - | - |
| 1788242977 | 22.78° C | 73% | 1015.5 hPa | 0 mm | - | - | - |
| 1788242672 | 23.33° C | 71% | 1015.4 hPa | 0 mm | - | - | - |
| 1788242372 | 23.33° C | 69% | 1015.4 hPa | 0 mm | - | - | - |
| 1788242069 | 23.33° C | 69% | 1015.4 hPa | 0 mm | - | - | - |
| 1788241765 | 22.78° C | 70% | 1015.3 hPa | 0 mm | - | - | - |
* Rain latest hour (hover to see other rain measurements)
** Current wind speed in m/s (hover to see current wind gust speed)